Time;durP1;ratioP1;P1;durP2;ratioP2;P2;SDS_P1;SDS_P2;PMS_P1;PMS_P2;Temp;Humidity;BMP_temperature;BMP_pressure;BME280_temperature;BME280_humidity;BME280_pressure;Samples;Min_cycle;Max_cycle;Signal;HPM_P1;HPM_P2
2021/11/19 00:01:10;;;;;;;414.45;371.38;;;13.70;85.80;;;12.93;100.00;100831.03;5011488;28;20416;-68
2021/11/19 00:03:39;;;;;;;489.35;444.05;;;13.70;86.00;;;12.98;100.00;100820.03;5012017;28;20440;-67
2021/11/19 00:06:07;;;;;;;490.65;445.23;;;13.80;85.90;;;13.04;100.00;100826.19;5011942;28;20421;-64
2021/11/19 00:08:36;;;;;;;496.45;450.85;;;13.80;85.70;;;13.11;100.00;100821.16;5012176;28;20887;-61
2021/11/19 00:11:09;;;;;;;504.30;458.60;;;13.90;85.70;;;13.18;100.00;100815.31;5011561;28;20417;-64
2021/11/19 00:13:37;;;;;;;499.02;453.60;;;13.90;85.40;;;13.26;100.00;100811.84;5012616;28;20424;-61
2021/11/19 00:16:08;;;;;;;446.05;402.13;;;14.00;85.40;;;13.31;100.00;100809.03;5012387;28;20475;-65
2021/11/19 00:18:36;;;;;;;464.77;420.20;;;14.10;85.30;;;13.37;100.00;100814.03;5012394;28;20413;-69
2021/11/19 00:21:05;;;;;;;423.25;380.13;;;14.10;85.00;;;13.49;100.00;100816.19;5011692;28;20420;-62
2021/11/19 00:23:33;;;;;;;530.38;484.17;;;14.20;84.70;;;13.53;100.00;100811.72;5011983;28;20864;-63
2021/11/19 00:26:01;;;;;;;534.60;488.67;;;14.20;84.40;;;13.54;100.00;100810.63;5012195;28;20431;-65
2021/11/19 00:28:30;;;;;;;545.15;499.10;;;14.30;84.30;;;13.60;100.00;100806.69;5012034;28;20471;-66
2021/11/19 00:30:59;;;;;;;537.03;490.88;;;14.30;84.20;;;13.63;100.00;100803.34;5011361;28;20507;-64
2021/11/19 00:33:30;;;;;;;547.35;501.05;;;14.30;84.20;;;13.65;100.00;100804.63;5011916;28;20767;-65
2021/11/19 00:35:58;;;;;;;553.92;507.52;;;14.30;83.90;;;13.61;100.00;100800.94;5012045;28;20915;-66
2021/11/19 00:38:28;;;;;;;549.28;503.00;;;14.30;84.80;;;13.60;100.00;100798.53;5011765;28;20876;-67
2021/11/19 00:41:00;;;;;;;545.10;498.77;;;14.20;84.10;;;13.60;100.00;100799.34;5011388;28;20441;-64
2021/11/19 00:43:29;;;;;;;439.02;395.52;;;14.20;84.10;;;13.47;100.00;100789.31;5011805;28;20447;-64
2021/11/19 00:45:58;;;;;;;436.42;393.10;;;14.20;84.20;;;13.39;100.00;100790.09;5011995;28;20440;-64
2021/11/19 00:48:30;;;;;;;523.42;477.73;;;14.20;84.50;;;13.42;100.00;100775.88;5011738;28;20421;-67
2021/11/19 00:51:02;;;;;;;488.05;443.30;;;14.10;84.50;;;13.44;100.00;100776.38;5011030;28;20413;-65
2021/11/19 00:53:31;;;;;;;533.17;487.17;;;14.10;84.70;;;13.35;100.00;100775.50;5011628;28;20408;-67
2021/11/19 00:55:59;;;;;;;526.80;480.98;;;14.10;84.80;;;13.34;100.00;100778.53;5011679;28;20425;-64
2021/11/19 00:58:27;;;;;;;536.38;489.98;;;14.10;84.90;;;13.32;100.00;100784.25;5011373;28;20424;-64
2021/11/19 01:01:00;;;;;;;529.20;483.20;;;14.10;85.10;;;13.34;100.00;100773.13;5011053;28;20417;-67
2021/11/19 01:03:30;;;;;;;524.28;478.00;;;14.10;85.30;;;13.28;100.00;100767.00;5011566;28;20482;-62
2021/11/19 01:05:58;;;;;;;519.80;473.90;;;14.10;85.30;;;13.34;100.00;100773.13;5011445;28;20471;-64
2021/11/19 01:08:28;;;;;;;530.63;484.67;;;14.10;85.40;;;13.36;100.00;100768.16;5011285;28;20420;-65
2021/11/19 01:11:01;;;;;;;535.10;488.80;;;14.10;85.20;;;13.39;100.00;100771.06;5010947;28;20459;-66
2021/11/19 01:13:31;;;;;;;531.97;485.95;;;14.10;85.30;;;13.38;100.00;100774.88;5011347;28;20779;-66
2021/11/19 01:16:04;;;;;;;529.45;483.50;;;14.10;85.20;;;13.33;100.00;100758.72;5011574;28;20486;-64
2021/11/19 01:18:41;;;;;;;532.17;486.15;;;14.10;85.40;;;13.41;100.00;100754.44;5011175;28;20895;-67
2021/11/19 01:21:13;;;;;;;516.53;470.95;;;14.10;85.30;;;13.37;100.00;100748.06;5010954;28;20421;-66
2021/11/19 01:23:42;;;;;;;522.27;476.60;;;14.10;85.30;;;13.31;100.00;100752.00;5011051;28;20428;-65
2021/11/19 01:26:14;;;;;;;423.10;379.95;;;14.10;85.40;;;13.30;100.00;100751.19;5010901;28;20421;-63
2021/11/19 01:28:44;;;;;;;524.40;478.50;;;14.10;85.40;;;13.32;100.00;100750.88;5011023;28;20420;-62
2021/11/19 01:31:15;;;;;;;510.92;465.40;;;14.10;85.50;;;13.32;100.00;100746.25;5010659;28;20455;-65
2021/11/19 01:33:45;;;;;;;460.20;415.63;;;14.10;85.60;;;13.29;100.00;100746.88;5010326;28;20464;-69
2021/11/19 01:36:16;;;;;;;460.33;416.17;;;14.10;85.50;;;13.41;100.00;100749.00;5011024;28;20514;-65
2021/11/19 01:38:45;;;;;;;526.92;480.90;;;14.00;85.40;;;13.31;100.00;100750.09;5010739;28;20416;-63
2021/11/19 01:41:18;;;;;;;529.40;483.50;;;14.10;85.40;;;13.33;100.00;100749.78;5010363;28;20433;-65
2021/11/19 01:43:48;;;;;;;534.28;488.17;;;14.10;85.40;;;13.31;100.00;100743.84;5010715;28;20495;-62
2021/11/19 01:46:21;;;;;;;534.58;488.08;;;14.10;85.40;;;13.26;100.00;100747.47;5010801;28;20420;-64
2021/11/19 01:48:54;;;;;;;531.05;485.08;;;14.00;85.30;;;13.34;100.00;100749.47;5010410;28;20420;-69
2021/11/19 01:51:31;;;;;;;534.93;488.63;;;14.10;85.40;;;13.33;100.00;100745.16;5010776;28;20424;-62
2021/11/19 01:54:06;;;;;;;532.10;485.90;;;14.10;85.40;;;13.31;100.00;100755.53;5010492;28;20424;-67
2021/11/19 01:56:38;;;;;;;526.63;480.63;;;14.10;85.20;;;13.44;100.00;100748.41;5010710;28;20864;-64
2021/11/19 01:59:13;;;;;;;526.30;480.33;;;14.10;85.20;;;13.48;100.00;100754.81;5010039;28;20409;-66
2021/11/19 02:01:47;;;;;;;406.77;364.00;;;14.10;85.10;;;13.40;100.00;100747.44;5010424;28;20432;-65
2021/11/19 02:04:20;;;;;;;488.85;443.98;;;14.10;85.00;;;13.40;100.00;100747.44;5010295;28;21251;-66
2021/11/19 02:06:52;;;;;;;531.87;486.10;;;14.10;85.00;;;13.41;100.00;100752.53;5010735;28;20420;-63
2021/11/19 02:09:35;;;;;;;530.23;484.17;;;14.10;85.00;;;13.43;100.00;100744.09;5009687;28;20415;-64
2021/11/19 02:12:16;;;;;;;541.35;495.15;;;14.10;85.10;;;13.32;100.00;100742.72;5010182;28;20423;-66
2021/11/19 02:14:59;;;;;;;543.40;497.07;;;14.10;85.30;;;13.34;100.00;100735.91;5010410;28;20413;-67
2021/11/19 02:17:27;;;;;;;533.90;487.70;;;14.00;85.30;;;13.25;100.00;100742.38;5010424;28;20775;-66
2021/11/19 02:20:02;;;;;;;534.47;488.33;;;14.00;85.40;;;13.23;100.00;100741.88;5009502;28;20420;-66
2021/11/19 02:22:38;;;;;;;536.20;490.17;;;13.90;85.50;;;13.28;100.00;100739.03;5010424;28;20417;-67
2021/11/19 02:25:11;;;;;;;536.10;490.07;;;13.90;85.60;;;13.24;100.00;100738.84;5010163;28;20444;-66
2021/11/19 02:27:44;;;;;;;545.03;498.73;;;13.90;85.50;;;13.23;100.00;100742.66;5010332;28;20817;-66
2021/11/19 02:30:17;;;;;;;536.77;490.27;;;13.90;85.50;;;13.24;100.00;100746.19;5009512;28;20430;-62
2021/11/19 02:32:50;;;;;;;537.88;491.80;;;13.90;85.30;;;13.22;100.00;100756.56;5010160;28;20443;-63
2021/11/19 02:35:28;;;;;;;532.88;486.55;;;13.90;85.70;;;13.23;100.00;100760.88;5010043;28;20717;-67
2021/11/19 02:38:00;;;;;;;512.25;466.45;;;13.90;85.60;;;13.24;100.00;100752.44;5009895;28;20540;-66
2021/11/19 02:40:33;;;;;;;415.98;372.95;;;13.90;85.50;;;13.24;100.00;100751.63;5009570;28;20514;-64
2021/11/19 02:43:06;;;;;;;531.95;485.73;;;13.90;85.40;;;13.23;100.00;100750.81;5010220;28;20416;-63
2021/11/19 02:45:38;;;;;;;531.90;485.75;;;13.90;85.60;;;13.17;100.00;100749.34;5011145;28;20436;-64
2021/11/19 02:48:08;;;;;;;528.15;481.95;;;13.90;85.70;;;13.12;100.00;100754.91;5013902;28;20756;-63
2021/11/19 02:50:38;;;;;;;518.75;472.55;;;13.90;85.90;;;13.06;100.00;100766.97;5013346;28;20469;-64
2021/11/19 02:53:09;;;;;;;518.08;471.98;;;13.80;85.90;;;13.02;100.00;100763.25;5014041;28;20784;-69
2021/11/19 02:55:42;;;;;;;523.42;477.50;;;13.80;86.00;;;12.97;100.00;100753.31;5014056;28;20446;-64
2021/11/19 02:58:16;;;;;;;517.97;472.00;;;13.70;86.00;;;12.87;100.00;100758.97;5013789;28;20416;-63
2021/11/19 03:00:49;;;;;;;521.38;475.23;;;13.60;86.30;;;12.86;100.00;100753.84;5013148;28;20413;-64
2021/11/19 03:03:17;;;;;;;508.67;462.75;;;13.60;86.40;;;12.87;100.00;100741.88;5013793;28;20424;-67
2021/11/19 03:05:47;;;;;;;511.53;466.17;;;13.60;86.40;;;12.81;100.00;100743.91;5013746;28;20436;-63
2021/11/19 03:08:16;;;;;;;511.60;465.83;;;13.50;86.50;;;12.74;100.00;100738.09;5013615;28;20423;-66
2021/11/19 03:10:55;;;;;;;499.98;454.35;;;13.50;86.90;;;12.76;100.00;100752.19;5013053;28;20432;-65
2021/11/19 03:13:25;;;;;;;506.17;460.40;;;13.50;87.10;;;12.76;100.00;100743.22;5013695;28;20423;-66
2021/11/19 03:15:55;;;;;;;489.40;443.88;;;13.50;87.10;;;12.77;100.00;100750.25;5013713;28;20523;-67
2021/11/19 03:18:27;;;;;;;430.70;386.60;;;13.50;87.10;;;12.78;100.00;100751.84;5013263;28;20478;-64
2021/11/19 03:21:06;;;;;;;438.98;394.73;;;13.50;87.20;;;12.80;100.00;100749.63;5012959;28;20420;-64
2021/11/19 03:23:36;;;;;;;488.85;443.58;;;13.50;87.20;;;12.72;100.00;100745.75;5013458;28;20819;-66
2021/11/19 03:26:06;;;;;;;492.63;446.95;;;13.50;87.30;;;12.74;100.00;100748.13;5013459;28;20498;-64
2021/11/19 03:28:34;;;;;;;500.98;455.42;;;13.50;87.30;;;12.70;100.00;100737.13;5013059;28;20466;-64
2021/11/19 03:31:08;;;;;;;498.88;453.13;;;13.40;87.20;;;12.65;100.00;100733.69;5012689;28;20408;-64
2021/11/19 03:33:40;;;;;;;498.63;452.92;;;13.40;87.30;;;12.58;100.00;100728.72;5013187;28;21037;-66
2021/11/19 03:36:12;;;;;;;493.75;448.13;;;13.30;87.30;;;12.54;100.00;100735.84;5013038;28;20439;-63
2021/11/19 03:38:47;;;;;;;492.77;447.27;;;13.20;87.40;;;12.44;100.00;100723.31;5012891;28;20453;-67
2021/11/19 03:41:19;;;;;;;495.08;449.38;;;13.20;87.60;;;12.37;100.00;100722.91;5012833;28;20815;-66
2021/11/19 03:43:57;;;;;;;482.17;436.90;;;13.10;87.70;;;12.26;100.00;100721.53;5013032;28;20416;-61
2021/11/19 03:46:30;;;;;;;481.77;436.38;;;13.00;88.20;;;12.22;100.00;100719.72;5012676;28;20433;-65
2021/11/19 03:48:58;;;;;;;484.02;438.45;;;13.00;88.70;;;12.28;100.00;100707.69;5012181;28;20415;-66
2021/11/19 03:51:32;;;;;;;481.93;436.30;;;13.00;88.60;;;12.24;100.00;100710.19;5011296;28;20424;-65
2021/11/19 03:54:01;;;;;;;473.98;428.58;;;12.90;88.60;;;12.24;100.00;100714.81;5012056;28;20420;-62
2021/11/19 03:56:30;;;;;;;477.92;432.73;;;12.90;89.00;;;12.28;100.00;100707.69;5012585;28;20412;-65
2021/11/19 03:58:58;;;;;;;476.85;431.00;;;12.90;89.10;;;12.32;100.00;100708.66;5011509;28;20416;-66
2021/11/19 04:01:30;;;;;;;483.80;438.20;;;13.00;89.20;;;12.24;100.00;100699.34;5012744;28;20819;-64
2021/11/19 04:03:58;;;;;;;473.67;427.92;;;13.00;89.30;;;12.28;100.00;100700.31;5012448;28;20423;-66
2021/11/19 04:06:29;;;;;;;463.65;418.60;;;13.00;89.30;;;12.33;100.00;100699.41;5011181;28;20436;-64
2021/11/19 04:08:57;;;;;;;465.20;420.10;;;13.00;90.00;;;12.32;100.00;100700.53;5011399;28;20791;-67
2021/11/19 04:11:27;;;;;;;476.77;431.67;;;13.00;89.50;;;12.39;100.00;100687.34;5012396;28;20483;-61
2021/11/19 04:13:56;;;;;;;448.90;404.05;;;13.00;89.60;;;12.36;100.00;100694.19;5012688;28;20408;-64
2021/11/19 04:16:32;;;;;;;462.23;416.93;;;13.10;89.70;;;12.34;100.00;100692.91;5012441;28;20505;-64
2021/11/19 04:19:02;;;;;;;465.83;420.63;;;13.10;89.70;;;12.25;100.00;100692.78;5011755;28;20891;-63
2021/11/19 04:21:32;;;;;;;473.05;427.75;;;13.00;89.60;;;12.28;100.00;100694.13;5012366;28;20424;-68
2021/11/19 04:24:01;;;;;;;480.10;434.45;;;13.00;89.80;;;12.20;100.00;100697.53;5012307;28;20478;-64
2021/11/19 04:26:31;;;;;;;481.50;435.83;;;13.00;90.00;;;12.24;100.00;100715.59;5012350;28;20463;-62
2021/11/19 04:29:00;;;;;;;474.63;428.92;;;13.00;90.40;;;12.21;100.00;100710.78;5011463;28;20953;-62
2021/11/19 04:31:30;;;;;;;473.00;427.30;;;13.00;90.10;;;12.17;100.00;100725.25;5012312;28;20404;-65
2021/11/19 04:34:00;;;;;;;470.17;424.48;;;12.90;90.00;;;12.16;100.00;100731.78;5012047;28;20423;-65
2021/11/19 04:36:28;;;;;;;479.55;433.55;;;12.90;90.10;;;12.17;100.00;100723.34;5012218;28;20886;-66
2021/11/19 04:38:58;;;;;;;468.70;423.17;;;12.90;90.10;;;12.08;100.00;100725.16;5011248;28;20827;-65
2021/11/19 04:41:26;;;;;;;450.47;404.93;;;12.90;90.20;;;12.02;100.00;100727.16;5011920;28;20424;-67
2021/11/19 04:43:54;;;;;;;458.88;413.38;;;12.80;90.50;;;11.97;100.00;100732.69;5012048;28;20424;-64
2021/11/19 04:46:23;;;;;;;464.85;419.15;;;12.80;90.20;;;11.97;100.00;100724.56;5011877;28;21536;-66
2021/11/19 04:48:51;;;;;;;456.95;411.85;;;12.70;90.30;;;11.86;100.00;100731.25;5011216;28;20408;-64
2021/11/19 04:51:24;;;;;;;444.90;399.88;;;12.70;90.40;;;11.83;100.00;100723.72;5011822;28;20490;-63
2021/11/19 04:53:53;;;;;;;411.55;367.52;;;12.60;90.50;;;11.81;100.00;100725.94;5011874;28;20420;-65
2021/11/19 04:56:24;;;;;;;385.73;325.52;;;12.60;90.50;;;11.76;100.00;100723.34;5011913;28;20433;-61
2021/11/19 04:58:53;;;;;;;431.17;386.73;;;12.50;90.50;;;11.73;100.00;100718.53;5011081;28;20417;-61
2021/11/19 05:01:25;;;;;;;430.40;385.67;;;12.50;90.70;;;11.71;100.00;100709.06;5011482;28;20889;-64
2021/11/19 05:03:54;;;;;;;441.40;396.40;;;12.50;90.80;;;11.66;100.00;100715.38;5011723;28;20922;-65
2021/11/19 05:06:22;;;;;;;436.25;391.13;;;12.50;90.90;;;11.59;100.00;100708.72;5011511;28;20495;-65
2021/11/19 05:08:51;;;;;;;444.75;399.65;;;12.40;91.00;;;11.68;100.00;100715.06;5010823;28;20423;-65
2021/11/19 05:11:30;;;;;;;437.80;392.92;;;12.50;91.10;;;11.68;100.00;100710.44;5011145;28;20916;-63
2021/11/19 05:13:59;;;;;;;444.60;399.30;;;12.50;91.20;;;11.70;100.00;100702.88;5011207;28;20430;-60
2021/11/19 05:16:28;;;;;;;430.00;385.48;;;12.50;91.30;;;11.73;100.00;100713.09;5011577;28;20456;-64
2021/11/19 05:18:56;;;;;;;444.15;399.33;;;12.50;91.30;;;11.75;100.00;100704.66;5010547;28;20945;-66
2021/11/19 05:21:25;;;;;;;441.02;396.00;;;12.50;91.30;;;11.76;100.00;100698.97;5011190;28;20428;-66
2021/11/19 05:23:53;;;;;;;443.85;398.55;;;12.50;91.30;;;11.72;100.00;100699.84;5011254;28;20830;-64
2021/11/19 05:26:22;;;;;;;430.55;386.08;;;12.50;91.40;;;11.77;100.00;100695.13;5010991;28;20498;-65
2021/11/19 05:28:52;;;;;;;401.63;358.10;;;12.50;91.40;;;11.76;100.00;100707.09;5010614;28;20504;-63
2021/11/19 05:31:20;;;;;;;378.38;313.90;;;12.50;91.50;;;11.72;100.00;100706.06;5010988;28;20429;-62
2021/11/19 05:33:49;;;;;;;426.27;381.37;;;12.50;91.50;;;11.71;100.00;100699.03;5011131;28;20947;-65
2021/11/19 05:36:18;;;;;;;439.00;394.45;;;12.50;91.60;;;11.79;100.00;100698.38;5011042;28;20420;-63
2021/11/19 05:38:46;;;;;;;438.13;393.55;;;12.50;91.40;;;11.78;100.00;100704.88;5010567;28;20875;-63
2021/11/19 05:41:18;;;;;;;444.85;399.63;;;12.50;91.50;;;11.68;100.00;100701.50;5010548;28;20417;-64
2021/11/19 05:43:49;;;;;;;444.15;398.88;;;12.50;91.70;;;11.73;100.00;100698.75;5010988;28;20478;-63
2021/11/19 05:46:21;;;;;;;450.97;405.90;;;12.50;91.70;;;11.73;100.00;100699.56;5010902;28;20432;-64
2021/11/19 05:48:51;;;;;;;439.25;394.63;;;12.40;91.70;;;11.73;100.00;100693.34;5010553;28;20891;-65
2021/11/19 05:51:23;;;;;;;440.10;395.50;;;12.40;91.80;;;11.68;100.00;100706.94;5010684;28;20965;-63
2021/11/19 05:53:52;;;;;;;432.07;387.33;;;12.50;91.90;;;11.64;100.00;100714.88;5010770;28;20507;-61
2021/11/19 05:56:22;;;;;;;440.58;395.45;;;12.40;91.90;;;11.62;100.00;100711.66;5010713;28;20427;-63
2021/11/19 05:58:50;;;;;;;434.08;389.05;;;12.40;92.00;;;11.65;100.00;100719.16;5010252;28;20479;-65
2021/11/19 06:01:23;;;;;;;434.15;388.95;;;12.40;92.10;;;11.63;100.00;100724.09;5010482;28;20424;-60
2021/11/19 06:03:52;;;;;;;440.37;395.53;;;12.40;92.00;;;11.63;100.00;100734.94;5010784;28;20416;-62
2021/11/19 06:06:21;;;;;;;399.00;355.27;;;12.40;92.10;;;11.58;100.00;100731.50;5010519;28;20428;-64
2021/11/19 06:08:52;;;;;;;416.88;372.08;;;12.40;91.80;;;11.59;100.00;100733.91;5010224;28;20416;-65
2021/11/19 06:11:26;;;;;;;398.70;354.30;;;12.40;92.10;;;11.58;100.00;100748.53;5010380;28;20839;-67
2021/11/19 06:13:59;;;;;;;387.92;325.55;;;12.40;92.00;;;11.54;100.00;100752.97;5010377;28;20416;-64
2021/11/19 06:16:35;;;;;;;408.52;363.95;;;12.30;91.90;;;11.53;100.00;100749.44;5010593;28;20419;-66
2021/11/19 06:19:10;;;;;;;380.45;306.83;;;12.30;92.20;;;11.51;100.00;100753.56;5009797;28;20424;-63
2021/11/19 06:21:42;;;;;;;417.45;372.65;;;12.40;92.00;;;11.48;100.00;100754.16;5009846;28;20471;-62
2021/11/19 06:24:15;;;;;;;411.63;366.97;;;12.30;92.00;;;11.45;100.00;100752.84;5010529;28;20425;-61
2021/11/19 06:26:46;;;;;;;407.48;362.98;;;12.30;92.20;;;11.42;100.00;100756.16;5010193;28;20429;-65
2021/11/19 06:29:15;;;;;;;413.77;369.33;;;12.20;92.20;;;11.39;100.00;100756.75;5009713;28;20769;-63
2021/11/19 06:31:48;;;;;;;419.20;374.23;;;12.20;92.20;;;11.33;100.00;100754.41;5010065;28;20576;-66
2021/11/19 06:34:17;;;;;;;412.80;368.35;;;12.10;92.40;;;11.29;100.00;100758.78;5010256;28;20495;-66
2021/11/19 06:36:46;;;;;;;413.45;368.60;;;12.10;92.50;;;11.26;100.00;100753.97;5010339;28;20879;-62
2021/11/19 06:39:15;;;;;;;411.52;367.00;;;12.00;92.60;;;11.30;100.00;100763.13;5009582;28;20973;-65
2021/11/19 06:41:44;;;;;;;416.25;371.15;;;12.00;92.70;;;11.27;100.00;100755.59;5009989;28;20431;-66
2021/11/19 06:44:13;;;;;;;409.83;365.27;;;12.00;92.70;;;11.23;100.00;100762.69;5010279;28;20475;-62
2021/11/19 06:46:43;;;;;;;401.58;357.08;;;12.00;92.70;;;11.22;100.00;100761.06;5010073;28;20432;-67
2021/11/19 06:49:12;;;;;;;404.63;360.17;;;12.00;92.70;;;11.16;100.00;100764.94;5009624;28;20404;-66
2021/11/19 06:51:41;;;;;;;398.35;354.33;;;12.00;92.70;;;11.16;100.00;100768.47;5009904;28;20945;-62
2021/11/19 06:54:10;;;;;;;382.92;295.55;;;12.00;92.80;;;11.19;100.00;100777.91;5010126;28;20424;-63
2021/11/19 06:56:38;;;;;;;387.65;313.83;;;12.00;92.90;;;11.21;100.00;100776.53;5010039;28;20419;-63
2021/11/19 06:59:08;;;;;;;397.17;351.33;;;12.00;92.90;;;11.20;100.00;100774.09;5009387;28;20478;-67
2021/11/19 07:01:38;;;;;;;389.70;333.77;;;12.00;92.90;;;11.20;100.00;100777.63;5009889;28;20529;-67
2021/11/19 07:04:08;;;;;;;400.35;356.17;;;12.00;93.00;;;11.18;100.00;100773.59;5009859;28;20455;-66
2021/11/19 07:06:37;;;;;;;408.20;363.42;;;12.00;92.90;;;11.14;100.00;100775.28;5009965;28;20896;-63
2021/11/19 07:09:08;;;;;;;405.90;361.55;;;11.90;92.90;;;11.09;100.00;100768.06;5009358;28;20500;-67
2021/11/19 07:11:36;;;;;;;401.60;355.08;;;11.90;93.00;;;11.10;100.00;100775.06;5009679;28;20416;-66
2021/11/19 07:14:05;;;;;;;393.13;333.20;;;11.90;93.00;;;11.07;100.00;100777.53;5009823;28;20495;-66
2021/11/19 07:16:35;;;;;;;401.55;357.50;;;11.90;93.10;;;11.05;100.00;100768.91;5009914;28;20443;-68
2021/11/19 07:19:05;;;;;;;382.35;302.80;;;11.80;93.10;;;11.01;100.00;100770.59;5009217;28;20419;-65
2021/11/19 07:21:36;;;;;;;395.02;348.80;;;11.80;93.20;;;11.03;100.00;100769.22;5009852;28;20981;-61
2021/11/19 07:24:06;;;;;;;397.55;347.48;;;11.80;93.30;;;11.05;100.00;100766.22;5009592;28;20443;-65
2021/11/19 07:26:35;;;;;;;402.45;358.20;;;11.80;93.40;;;11.11;100.00;100770.47;5010023;28;20511;-66
2021/11/19 07:29:05;;;;;;;408.63;364.50;;;11.80;93.30;;;11.14;100.00;100767.97;5009047;28;20918;-65
2021/11/19 07:31:35;;;;;;;397.35;353.20;;;11.90;93.50;;;11.13;100.00;100765.53;5009691;28;20479;-64
2021/11/19 07:34:04;;;;;;;408.80;364.33;;;11.90;93.50;;;11.24;100.00;100769.72;5013056;28;20419;-64
2021/11/19 07:36:34;;;;;;;387.08;330.52;;;12.00;93.50;;;11.32;100.00;100771.75;5013342;28;20471;-67
2021/11/19 07:39:04;;;;;;;387.83;330.67;;;12.00;93.60;;;11.39;100.00;100761.34;5012814;28;20527;-65
2021/11/19 07:41:33;;;;;;;382.50;320.83;;;12.10;93.60;;;11.51;100.00;100770.63;5013171;28;20431;-66
2021/11/19 07:44:02;;;;;;;434.45;389.80;;;12.10;93.50;;;11.57;100.00;100770.50;5013075;28;20428;-65
2021/11/19 07:46:31;;;;;;;429.95;385.10;;;12.20;93.60;;;11.62;100.00;100775.84;5013111;28;20985;-68
2021/11/19 07:49:00;;;;;;;440.55;395.63;;;12.20;93.40;;;11.73;100.00;100780.84;5012241;28;20753;-64
2021/11/19 07:51:31;;;;;;;436.10;391.38;;;12.30;93.40;;;11.79;100.00;100781.53;5012996;28;20417;-63
2021/11/19 07:54:02;;;;;;;453.05;407.55;;;12.50;93.40;;;11.91;100.00;100781.84;5012778;28;20440;-67
2021/11/19 07:56:33;;;;;;;450.05;405.15;;;12.50;93.20;;;12.06;100.00;100773.44;5012827;28;20470;-66
2021/11/19 07:59:06;;;;;;;468.35;423.08;;;12.60;93.20;;;12.18;100.00;100783.78;5012275;28;20409;-65
2021/11/19 08:01:34;;;;;;;469.60;424.20;;;12.70;93.00;;;12.27;100.00;100782.78;5012804;28;20787;-64
2021/11/19 08:04:03;;;;;;;483.17;437.50;;;12.90;92.90;;;12.37;100.00;100787.97;5011537;28;20406;-62
2021/11/19 08:06:32;;;;;;;485.10;439.58;;;13.00;92.70;;;12.52;100.00;100789.59;5012738;28;20868;-66
2021/11/19 08:09:02;;;;;;;492.15;446.85;;;13.20;92.50;;;12.63;100.00;100779.31;5011728;28;20421;-62
2021/11/19 08:11:30;;;;;;;495.20;449.25;;;13.20;92.40;;;12.67;100.00;100770.28;5012448;28;20760;-62
2021/11/19 08:13:58;;;;;;;507.30;461.23;;;13.30;92.30;;;12.76;100.00;100773.06;5012372;28;20778;-65
2021/11/19 08:16:27;;;;;;;511.92;465.60;;;13.30;92.20;;;12.78;100.00;100768.94;5012625;28;20868;-62
2021/11/19 08:18:58;;;;;;;520.08;473.77;;;13.40;92.20;;;12.88;100.00;100759.78;5011648;28;20412;-64
2021/11/19 08:21:27;;;;;;;516.10;469.90;;;13.40;92.10;;;13.00;100.00;100762.75;5012395;28;20883;-63
2021/11/19 08:24:04;;;;;;;529.17;482.60;;;13.50;92.00;;;13.17;100.00;100745.81;5012478;28;20408;-63
2021/11/19 08:26:38;;;;;;;523.10;477.15;;;13.60;91.80;;;13.26;100.00;100750.19;5012194;28;20436;-62
2021/11/19 08:29:12;;;;;;;542.97;496.27;;;13.80;91.70;;;13.27;100.00;100757.25;5011751;28;20413;-63
2021/11/19 08:31:41;;;;;;;536.90;490.57;;;13.80;91.40;;;13.19;100.00;100749.84;5011949;28;20958;-61
2021/11/19 08:34:09;;;;;;;541.55;495.15;;;13.70;91.30;;;13.23;100.00;100758.16;5012173;28;20463;-65
2021/11/19 08:36:38;;;;;;;539.03;492.77;;;13.80;91.60;;;13.45;100.00;100758.16;5012062;28;20408;-65
2021/11/19 08:39:11;;;;;;;555.97;509.17;;;13.80;91.20;;;13.55;100.00;100757.91;5011261;28;20420;-66
2021/11/19 08:41:40;;;;;;;562.10;515.45;;;13.90;91.20;;;13.63;100.00;100760.66;5012077;28;20428;-64
2021/11/19 08:44:08;;;;;;;568.90;522.08;;;14.00;91.30;;;13.75;100.00;100745.69;5011569;28;20424;-61
2021/11/19 08:46:41;;;;;;;572.03;525.28;;;14.10;91.20;;;13.88;100.00;100748.34;5011669;28;20494;-62
2021/11/19 08:49:12;;;;;;;549.42;503.08;;;14.20;90.80;;;14.02;100.00;100748.22;5011290;28;20431;-65
2021/11/19 08:51:42;;;;;;;586.22;539.05;;;14.40;90.70;;;14.03;100.00;100756.06;5011681;28;20421;-59
2021/11/19 08:54:14;;;;;;;524.38;478.73;;;14.30;90.70;;;14.12;100.00;100753.38;5011771;28;20424;-64
2021/11/19 08:56:47;;;;;;;585.72;538.83;;;14.40;90.40;;;14.20;100.00;100747.97;5011739;28;20420;-62
2021/11/19 08:59:16;;;;;;;597.08;549.45;;;14.50;90.40;;;14.34;100.00;100760.69;5010877;28;20470;-65
2021/11/19 09:01:49;;;;;;;615.55;568.08;;;14.60;90.40;;;14.44;100.00;100733.19;5011564;28;20421;-64
2021/11/19 09:04:17;;;;;;;622.33;574.67;;;14.70;89.80;;;14.41;100.00;100744.72;5011578;28;20891;-67
2021/11/19 09:06:46;;;;;;;623.60;575.80;;;14.70;89.90;;;14.50;100.00;100759.13;5011464;28;20440;-63
2021/11/19 09:09:17;;;;;;;626.13;578.63;;;14.70;89.90;;;14.50;100.00;100756.41;5010805;28;21262;-62
2021/11/19 09:11:49;;;;;;;633.17;584.80;;;14.70;90.10;;;14.54;100.00;100768.25;5011303;28;20507;-63
2021/11/19 09:14:18;;;;;;;648.85;600.35;;;14.70;90.20;;;14.73;100.00;100763.31;5011405;28;20413;-66
2021/11/19 09:17:01;;;;;;;650.45;602.05;;;14.90;89.90;;;14.88;100.00;100768.28;5011365;28;20421;-65
2021/11/19 09:19:35;;;;;;;642.63;594.90;;;15.10;89.50;;;15.06;100.00;100775.34;5010702;28;20428;-63
2021/11/19 09:22:27;;;;;;;669.40;620.72;;;15.30;89.20;;;15.23;100.00;100774.53;5011124;28;20408;-65
2021/11/19 09:24:57;;;;;;;663.15;614.65;;;15.40;88.70;;;15.29;100.00;100778.69;5011132;28;20448;-66
2021/11/19 09:27:30;;;;;;;683.88;635.08;;;15.60;88.50;;;15.50;100.00;100774.22;5011047;28;20437;-63
2021/11/19 09:30:04;;;;;;;676.13;627.47;;;15.80;88.10;;;15.44;100.00;100777.41;5010236;28;20543;-65
2021/11/19 09:32:32;;;;;;;686.40;637.63;;;15.60;87.70;;;15.55;100.00;100770.53;5011258;28;20421;-62
2021/11/19 09:35:02;;;;;;;690.17;641.40;;;15.80;88.00;;;15.77;100.00;100781.22;5011338;28;20834;-64
2021/11/19 09:37:30;;;;;;;699.72;650.53;;;16.00;87.50;;;15.99;100.00;100772.78;5011000;28;20894;-63
2021/11/19 09:40:00;;;;;;;702.05;652.80;;;16.30;87.40;;;16.20;100.00;100772.88;5010038;28;20519;-66
2021/11/19 09:42:46;;;;;;;717.15;667.78;;;16.50;86.50;;;16.28;100.00;100770.09;5010848;28;20884;-68
2021/11/19 09:45:32;;;;;;;727.50;677.03;;;16.60;85.70;;;16.46;100.00;100767.28;5010668;28;20526;-62
2021/11/19 09:48:52;;;;;;;723.85;673.78;;;16.80;85.80;;;16.75;100.00;100765.34;5009339;28;20432;-64
2021/11/19 09:52:14;;;;;;;737.37;687.40;;;17.10;85.10;;;16.89;100.00;100767.81;5008435;28;20420;-63
2021/11/19 09:55:31;;;;;;;758.17;707.80;;;17.20;84.20;;;16.90;100.00;100769.44;5010138;28;20421;-68
2021/11/19 09:58:36;;;;;;;762.67;712.10;;;17.10;83.60;;;16.95;100.00;100766.50;5007892;28;20432;-62